createdAt,value
2023-04-10T00:03:24.429Z,64.99
2023-04-10T00:07:25.655Z,65.93
2023-04-10T00:11:06.642Z,66.88
2023-04-10T00:15:14.827Z,64.73
2023-04-10T00:18:55.536Z,64.21
2023-04-10T00:22:43.420Z,63.91
2023-04-10T00:26:51.617Z,64.79
2023-04-10T00:30:50.703Z,66.13
2023-04-10T00:34:48.949Z,66.55
2023-04-10T00:38:46.088Z,63.18
2023-04-10T00:42:10.073Z,62.97
2023-04-10T00:45:58.386Z,62.89
2023-04-10T00:50:06.545Z,64.36
2023-04-10T00:54:17.776Z,66.35
2023-04-10T00:58:25.868Z,67.14
2023-04-10T01:02:34.131Z,64.42
2023-04-10T01:06:40.883Z,64.03
2023-04-10T01:10:51.854Z,65.14
2023-04-10T01:15:00.006Z,66.29
2023-04-10T01:19:17.506Z,67.22
2023-04-10T01:23:43.943Z,64.37
2023-04-10T01:28:10.499Z,64.31
2023-04-10T01:32:27.577Z,65.45
2023-04-10T01:36:36.716Z,66.78
2023-04-10T01:40:38.397Z,67.37
2023-04-10T01:44:39.394Z,64.17
2023-04-10T01:48:47.517Z,64.15
2023-04-10T01:52:48.280Z,64.95
2023-04-10T01:56:46.280Z,65.42
2023-04-10T02:00:54.552Z,66.41
2023-04-10T02:05:06.101Z,63.67
2023-04-10T02:08:53.984Z,63.90
2023-04-10T02:13:12.644Z,64.39
2023-04-10T02:17:13.860Z,64.56
2023-04-10T02:21:22.033Z,66.60
2023-04-10T02:25:30.202Z,63.99
2023-04-10T02:29:38.895Z,64.05
2023-04-10T02:33:47.016Z,65.06
2023-04-10T02:37:58.230Z,66.20
2023-04-10T02:42:08.788Z,67.16
2023-04-10T02:46:10.581Z,64.30
2023-04-10T02:50:19.437Z,64.19
2023-04-10T02:54:27.451Z,65.13
2023-04-10T02:58:18.807Z,66.75
2023-04-10T03:02:27.106Z,67.39
2023-04-10T03:06:27.403Z,67.89
2023-04-10T03:10:35.474Z,64.77
2023-04-10T03:14:36.418Z,64.01
2023-04-10T03:18:44.520Z,65.05
2023-04-10T03:22:03.783Z,65.96
2023-04-10T03:25:22.088Z,66.19
2023-04-10T03:29:22.794Z,64.84
2023-04-10T03:33:30.907Z,63.55
2023-04-10T03:37:39.140Z,64.85
2023-04-10T03:41:47.367Z,64.12
2023-04-10T03:45:55.562Z,65.91
2023-04-10T03:49:45.424Z,63.88
2023-04-10T03:53:46.415Z,63.61
2023-04-10T03:57:54.534Z,63.16
2023-04-10T04:01:08.215Z,64.60
2023-04-10T04:04:24.001Z,64.59
2023-04-10T04:07:56.443Z,65.76
2023-04-10T04:12:19.845Z,63.91
2023-04-10T04:16:09.277Z,63.79
2023-04-10T04:19:28.886Z,64.65
2023-04-10T04:22:55.633Z,65.52
2023-04-10T04:26:09.201Z,66.57
2023-04-10T04:29:37.296Z,64.64
2023-04-10T04:33:33.879Z,63.86
2023-04-10T04:37:02.247Z,64.57
2023-04-10T04:40:09.811Z,65.75
2023-04-10T04:43:27.591Z,66.60
2023-04-10T04:46:32.216Z,67.53
2023-04-10T04:49:51.366Z,65.49
2023-04-10T04:52:50.919Z,64.46
2023-04-10T04:56:15.458Z,64.66
2023-04-10T04:59:53.482Z,65.90
2023-04-10T05:02:44.228Z,66.55
2023-04-10T05:05:52.283Z,67.19
2023-04-10T05:08:32.030Z,66.36
2023-04-10T05:12:03.216Z,64.36
2023-04-10T05:15:06.448Z,64.04
2023-04-10T05:18:30.807Z,64.59
2023-04-10T05:21:39.493Z,65.52
2023-04-10T05:24:29.452Z,65.33
2023-04-10T05:27:38.021Z,66.41
2023-04-10T05:30:40.253Z,65.02
2023-04-10T05:33:34.039Z,63.57
2023-04-10T05:36:34.032Z,63.18
2023-04-10T05:39:23.343Z,63.70
2023-04-10T05:43:14.818Z,64.08
2023-04-10T05:46:37.148Z,65.57
2023-04-10T05:49:55.562Z,62.80
2023-04-10T05:53:00.278Z,61.64
2023-04-10T05:55:56.685Z,61.10
2023-04-10T05:59:06.805Z,62.03
2023-04-10T06:02:36.132Z,62.57
2023-04-10T06:05:07.037Z,62.81
2023-04-10T06:07:58.345Z,63.54
2023-04-10T06:10:30.739Z,62.45
2023-04-10T06:13:01.764Z,61.22
2023-04-10T06:15:32.870Z,59.92
2023-04-10T06:18:09.383Z,60.18
2023-04-10T06:20:40.413Z,60.67
2023-04-10T06:23:24.222Z,61.66
2023-04-10T06:26:19.999Z,63.33
2023-04-10T06:28:50.621Z,63.48
2023-04-10T06:31:21.206Z,62.86
2023-04-10T06:33:52.117Z,61.69
2023-04-10T06:36:20.036Z,60.74
2023-04-10T06:39:31.137Z,60.52
2023-04-10T06:42:07.833Z,61.24
2023-04-10T06:45:05.902Z,62.17
2023-04-10T06:47:42.270Z,62.17
2023-04-10T06:50:13.904Z,62.54
2023-04-10T06:53:00.226Z,61.84
2023-04-10T06:55:40.077Z,60.31
2023-04-10T06:58:43.326Z,59.79
2023-04-10T07:01:13.498Z,59.79
2023-04-10T07:03:48.335Z,60.23
2023-04-10T07:06:29.417Z,60.55
2023-04-10T07:08:58.027Z,60.74
2023-04-10T07:11:25.547Z,62.31
2023-04-10T07:14:01.797Z,62.54
2023-04-10T07:16:53.907Z,61.17
2023-04-10T07:19:24.905Z,61.01
2023-04-10T07:22:04.907Z,60.81
2023-04-10T07:24:46.035Z,61.62
2023-04-10T07:27:23.267Z,62.27
2023-04-10T07:30:16.662Z,61.75
2023-04-10T07:33:29.129Z,61.56
2023-04-10T07:36:13.072Z,59.26
2023-04-10T07:38:42.379Z,58.35
2023-04-10T07:41:18.381Z,57.92
2023-04-10T07:43:54.957Z,57.37
2023-04-10T07:46:22.714Z,58.51
2023-04-10T07:48:59.129Z,59.32
2023-04-10T07:51:27.792Z,60.07
2023-04-10T07:53:57.920Z,61.11
2023-04-10T07:56:31.493Z,61.39
2023-04-10T07:59:05.180Z,60.83
2023-04-10T08:01:41.419Z,59.35
2023-04-10T08:04:09.135Z,58.59
2023-04-10T08:06:42.696Z,58.42
2023-04-10T08:09:09.961Z,58.53
2023-04-10T08:11:50.429Z,58.40
2023-04-10T08:14:24.630Z,59.03
2023-04-10T08:16:54.352Z,59.54
2023-04-10T08:19:24.348Z,59.91
2023-04-10T08:21:51.656Z,59.65
2023-04-10T08:24:31.005Z,60.33
2023-04-10T08:28:18.724Z,58.71
2023-04-10T08:30:58.923Z,57.60
2023-04-10T08:33:35.462Z,57.84
2023-04-10T08:36:02.521Z,57.14
2023-04-10T08:38:31.970Z,57.60
2023-04-10T08:40:59.520Z,57.52
2023-04-10T08:43:27.581Z,56.90
2023-04-10T08:46:10.278Z,57.92
2023-04-10T08:49:01.598Z,57.61
2023-04-10T08:52:03.613Z,57.51
2023-04-10T08:54:43.654Z,57.55
2023-04-10T08:57:54.015Z,57.24
2023-04-10T09:00:31.754Z,57.77
2023-04-10T09:03:15.194Z,57.96
2023-04-10T09:06:18.367Z,58.23
2023-04-10T09:08:45.777Z,58.01
2023-04-10T09:11:15.947Z,58.97
2023-04-10T09:13:44.192Z,58.84
2023-04-10T09:16:31.823Z,59.42
2023-04-10T09:19:03.888Z,58.11
2023-04-10T09:21:34.466Z,56.91
2023-04-10T09:24:01.830Z,57.76
2023-04-10T09:26:30.044Z,57.89
2023-04-10T09:29:03.323Z,57.67
2023-04-10T09:31:44.088Z,57.11
2023-04-10T09:34:18.791Z,56.72
2023-04-10T09:36:54.487Z,56.97
2023-04-10T09:39:54.374Z,57.06
2023-04-10T09:42:33.132Z,57.88
2023-04-10T09:45:01.333Z,58.39
2023-04-10T09:47:30.875Z,59.01
2023-04-10T09:50:00.887Z,59.22
2023-04-10T09:52:33.928Z,59.47
2023-04-10T09:55:14.476Z,58.59
2023-04-10T09:57:41.986Z,57.11
2023-04-10T10:00:15.455Z,56.85
2023-04-10T10:02:44.936Z,56.27
2023-04-10T10:05:17.005Z,56.12
2023-04-10T10:07:49.688Z,55.50
2023-04-10T10:10:16.717Z,55.64
2023-04-10T10:13:00.149Z,55.39
2023-04-10T10:15:45.040Z,55.70
2023-04-10T10:18:26.209Z,54.74
2023-04-10T10:20:56.184Z,55.46
2023-04-10T10:23:29.909Z,55.28
2023-04-10T10:25:57.262Z,54.67
2023-04-10T10:28:25.370Z,54.45
2023-04-10T10:31:04.424Z,54.57
2023-04-10T10:34:05.659Z,54.31
2023-04-10T10:37:20.089Z,53.17
2023-04-10T10:39:56.795Z,53.70
2023-04-10T10:42:51.098Z,53.68
2023-04-10T10:45:47.281Z,54.15
2023-04-10T10:48:14.484Z,54.87
2023-04-10T10:50:57.417Z,55.26
2023-04-10T10:53:39.669Z,55.82
2023-04-10T10:56:23.434Z,56.02
2023-04-10T10:59:02.113Z,56.09
2023-04-10T11:01:39.421Z,56.32
2023-04-10T11:04:48.718Z,56.07
2023-04-10T11:07:16.140Z,57.29
2023-04-10T11:09:57.827Z,58.40
2023-04-10T11:12:26.046Z,60.12
2023-04-10T11:15:00.694Z,61.23
2023-04-10T11:17:48.794Z,60.19
2023-04-10T11:20:17.032Z,60.44
2023-04-10T11:23:10.478Z,59.96
2023-04-10T11:25:53.048Z,61.26
2023-04-10T11:28:38.860Z,61.24
2023-04-10T11:31:22.798Z,62.10
2023-04-10T11:34:10.988Z,63.80
2023-04-10T11:36:41.969Z,64.17
2023-04-10T11:39:09.556Z,63.26
2023-04-10T11:41:43.239Z,61.76
2023-04-10T11:44:12.055Z,60.85
2023-04-10T11:46:43.341Z,61.28
2023-04-10T11:49:10.864Z,60.99
2023-04-10T11:51:52.273Z,61.35
2023-04-10T11:54:24.075Z,61.81
2023-04-10T11:57:17.515Z,62.78
2023-04-10T11:59:49.832Z,61.53
2023-04-10T12:02:16.920Z,59.36
2023-04-10T12:04:44.669Z,57.74
2023-04-10T12:07:19.295Z,57.06
2023-04-10T12:09:49.922Z,56.25
2023-04-10T12:12:21.805Z,57.76
2023-04-10T12:14:53.443Z,58.57
2023-04-10T12:17:21.212Z,57.73
2023-04-10T12:19:53.342Z,57.87
2023-04-10T12:22:26.025Z,57.93
2023-04-10T12:24:54.478Z,58.49
2023-04-10T12:27:43.756Z,58.52
2023-04-10T12:30:57.435Z,58.76
2023-04-10T12:33:58.078Z,59.58
2023-04-10T12:36:35.449Z,58.22
2023-04-10T12:39:22.474Z,56.79
2023-04-10T12:42:17.806Z,55.98
2023-04-10T12:44:54.853Z,56.51
2023-04-10T12:47:26.072Z,57.29
2023-04-10T12:50:27.839Z,57.68
2023-04-10T12:53:04.976Z,58.28
2023-04-10T12:55:34.529Z,58.98
2023-04-10T12:58:29.248Z,60.22
2023-04-10T13:01:02.824Z,61.21
2023-04-10T13:03:31.907Z,61.06
2023-04-10T13:05:59.709Z,60.43
2023-04-10T13:08:32.695Z,58.97
2023-04-10T13:11:04.643Z,58.39
2023-04-10T13:13:33.918Z,58.16
2023-04-10T13:16:01.452Z,58.71
2023-04-10T13:18:29.490Z,59.07
2023-04-10T13:20:56.680Z,59.35
2023-04-10T13:23:24.772Z,59.81
2023-04-10T13:25:52.372Z,59.73
2023-04-10T13:28:21.551Z,60.88
2023-04-10T13:30:48.719Z,60.52
2023-04-10T13:33:18.440Z,59.25
2023-04-10T13:35:45.752Z,58.62
2023-04-10T13:38:12.964Z,58.43
2023-04-10T13:40:52.910Z,58.72
2023-04-10T13:43:21.018Z,59.45
2023-04-10T13:45:50.040Z,59.62
2023-04-10T13:48:22.293Z,60.97
2023-04-10T13:50:54.665Z,61.03
2023-04-10T13:53:24.617Z,61.58
2023-04-10T13:55:54.360Z,61.31
2023-04-10T13:58:28.709Z,59.15
2023-04-10T14:00:56.048Z,58.74
2023-04-10T14:03:25.844Z,59.03
2023-04-10T14:05:54.127Z,58.54
2023-04-10T14:08:27.131Z,59.03
2023-04-10T14:10:54.366Z,59.16
2023-04-10T14:13:21.790Z,59.64
2023-04-10T14:15:53.771Z,60.06
2023-04-10T14:18:41.229Z,59.49
2023-04-10T14:21:20.935Z,60.45
2023-04-10T14:23:48.290Z,59.27
2023-04-10T14:26:18.026Z,57.94
2023-04-10T14:28:46.088Z,57.08
2023-04-10T14:31:13.341Z,57.30
2023-04-10T14:33:40.962Z,57.29
2023-04-10T14:36:15.689Z,57.24
2023-04-10T14:38:42.770Z,57.75
2023-04-10T14:41:10.363Z,57.87
2023-04-10T14:43:39.674Z,58.30
2023-04-10T14:46:07.113Z,58.52
2023-04-10T14:48:38.067Z,58.79
2023-04-10T14:51:14.782Z,58.27
2023-04-10T14:53:50.099Z,58.35
2023-04-10T14:56:18.217Z,58.24
2023-04-10T14:58:48.259Z,58.76
2023-04-10T15:01:16.276Z,58.51
2023-04-10T15:03:47.315Z,57.28
2023-04-10T15:06:16.144Z,56.36
2023-04-10T15:08:43.660Z,56.54
2023-04-10T15:11:10.961Z,57.00
2023-04-10T15:13:40.190Z,56.98
2023-04-10T15:16:25.126Z,57.01
2023-04-10T15:18:55.407Z,56.89
2023-04-10T15:21:22.742Z,57.39
2023-04-10T15:23:49.793Z,57.62
2023-04-10T15:26:17.008Z,57.36
2023-04-10T15:28:48.416Z,57.28
2023-04-10T15:31:16.143Z,57.77
2023-04-10T15:33:56.143Z,58.36
2023-04-10T15:36:26.215Z,58.96
2023-04-10T15:39:02.896Z,58.80
2023-04-10T15:41:33.261Z,57.12
2023-04-10T15:44:00.291Z,56.43
2023-04-10T15:46:32.721Z,56.53
2023-04-10T15:49:10.407Z,56.88
2023-04-10T15:51:39.076Z,56.99
2023-04-10T15:54:10.999Z,57.38
2023-04-10T15:57:10.794Z,57.42
2023-04-10T15:59:39.332Z,58.32
2023-04-10T16:02:06.656Z,58.33
2023-04-10T16:04:50.018Z,58.87
2023-04-10T16:07:18.026Z,59.04
2023-04-10T16:09:47.634Z,58.35
2023-04-10T16:12:24.590Z,56.61
2023-04-10T16:14:52.526Z,55.70
2023-04-10T16:17:22.550Z,55.93
2023-04-10T16:19:55.140Z,56.30
2023-04-10T16:22:24.067Z,56.76
2023-04-10T16:24:57.224Z,57.24
2023-04-10T16:27:27.155Z,57.49
2023-04-10T16:29:55.034Z,57.56
2023-04-10T16:32:31.755Z,57.75
2023-04-10T16:35:08.861Z,58.61
2023-04-10T16:37:38.837Z,58.97
2023-04-10T16:40:15.334Z,59.68
2023-04-10T16:42:45.772Z,60.41
2023-04-10T16:45:18.697Z,60.38
2023-04-10T16:47:46.295Z,59.26
2023-04-10T16:50:14.272Z,58.86
2023-04-10T16:52:45.666Z,58.90
2023-04-10T16:55:13.187Z,59.57
2023-04-10T16:57:40.396Z,60.09
2023-04-10T17:00:11.693Z,60.79
2023-04-10T17:02:40.251Z,61.44
2023-04-10T17:05:14.965Z,62.27
2023-04-10T17:07:45.221Z,62.23
2023-04-10T17:10:12.380Z,61.06
2023-04-10T17:12:43.596Z,60.74
2023-04-10T17:15:21.692Z,60.82
2023-04-10T17:18:01.554Z,61.33
2023-04-10T17:20:28.912Z,61.89
2023-04-10T17:22:56.236Z,62.52
2023-04-10T17:25:32.374Z,63.36
2023-04-10T17:27:59.957Z,63.43
2023-04-10T17:30:43.177Z,62.37
2023-04-10T17:33:10.713Z,61.97
2023-04-10T17:35:37.747Z,62.24
2023-04-10T17:38:08.733Z,62.86
2023-04-10T17:40:37.087Z,63.61
2023-04-10T17:43:08.818Z,64.38
2023-04-10T17:45:37.558Z,64.38
2023-04-10T17:48:04.938Z,63.41
2023-04-10T17:50:44.567Z,63.01
2023-04-10T17:53:11.706Z,63.21
2023-04-10T17:55:41.608Z,63.72
2023-04-10T17:58:15.388Z,63.72
2023-04-10T18:00:51.449Z,64.47
2023-04-10T18:03:19.760Z,65.63
2023-04-10T18:05:47.532Z,65.53
2023-04-10T18:08:14.757Z,64.21
2023-04-10T18:10:42.626Z,63.52
2023-04-10T18:13:09.775Z,63.52
2023-04-10T18:15:38.312Z,63.92
2023-04-10T18:18:05.893Z,64.47
2023-04-10T18:20:35.758Z,65.24
2023-04-10T18:23:06.555Z,65.12
2023-04-10T18:25:41.214Z,64.27
2023-04-10T18:28:23.300Z,63.78
2023-04-10T18:30:54.963Z,63.99
2023-04-10T18:33:28.550Z,64.10
2023-04-10T18:36:00.350Z,64.43
2023-04-10T18:38:27.392Z,65.30
2023-04-10T18:40:58.023Z,65.16
2023-04-10T18:43:25.877Z,63.83
2023-04-10T18:45:53.920Z,63.39
2023-04-10T18:48:23.021Z,63.34
2023-04-10T18:50:53.551Z,64.09
2023-04-10T18:53:25.671Z,64.51
2023-04-10T18:56:01.221Z,65.40
2023-04-10T18:58:37.851Z,65.42
2023-04-10T19:01:20.348Z,64.43
2023-04-10T19:04:06.964Z,64.00
2023-04-10T19:06:35.144Z,64.33
2023-04-10T19:09:04.871Z,64.73
2023-04-10T19:11:32.671Z,64.86
2023-04-10T19:14:08.116Z,65.64
2023-04-10T19:16:42.207Z,65.69
2023-04-10T19:19:16.974Z,64.70
2023-04-10T19:21:51.779Z,64.60
2023-04-10T19:24:21.649Z,64.98
2023-04-10T19:26:52.924Z,65.74
2023-04-10T19:29:33.181Z,66.30
2023-04-10T19:32:03.332Z,66.98
2023-04-10T19:35:05.345Z,66.89
2023-04-10T19:37:35.740Z,65.23
2023-04-10T19:40:18.974Z,64.22
2023-04-10T19:42:47.180Z,64.89
2023-04-10T19:45:21.311Z,65.56
2023-04-10T19:47:53.538Z,66.50
2023-04-10T19:50:20.984Z,66.50
2023-04-10T19:53:15.695Z,65.29
2023-04-10T19:56:15.627Z,65.10
2023-04-10T19:58:48.211Z,65.52
2023-04-10T20:01:24.168Z,66.22
2023-04-10T20:04:21.591Z,67.10
2023-04-10T20:07:09.606Z,66.58
2023-04-10T20:10:02.475Z,65.07
2023-04-10T20:12:33.428Z,64.70
2023-04-10T20:17:04.709Z,65.87
2023-04-10T20:19:45.456Z,66.01
2023-04-10T20:22:38.833Z,66.91
2023-04-10T20:25:07.831Z,66.31
2023-04-10T20:28:18.141Z,64.75
2023-04-10T20:30:53.363Z,64.44
2023-04-10T20:33:53.804Z,64.82
2023-04-10T20:36:41.302Z,65.57
2023-04-10T20:39:37.365Z,66.01
2023-04-10T20:42:49.111Z,66.93
2023-04-10T20:46:27.317Z,65.78
2023-04-10T20:49:44.654Z,64.22
2023-04-10T20:53:01.030Z,64.43
2023-04-10T20:55:37.168Z,65.07
2023-04-10T20:58:45.223Z,65.63
2023-04-10T21:02:11.024Z,66.64
2023-04-10T21:05:30.153Z,64.69
2023-04-10T21:09:30.014Z,63.56
2023-04-10T21:12:33.710Z,64.19
2023-04-10T21:16:12.028Z,65.10
2023-04-10T21:19:50.956Z,65.96
2023-04-10T21:23:17.237Z,67.08
2023-04-10T21:26:14.844Z,65.04
2023-04-10T21:29:49.064Z,63.59
2023-04-10T21:33:42.561Z,64.26
2023-04-10T21:37:50.642Z,65.25
2023-04-10T21:41:41.400Z,66.31
2023-04-10T21:45:05.206Z,67.14
2023-04-10T21:48:28.285Z,65.16
2023-04-10T21:52:08.451Z,63.92
2023-04-10T21:55:39.621Z,64.26
2023-04-10T21:59:31.738Z,65.00
2023-04-10T22:03:33.567Z,66.03
2023-04-10T22:07:18.778Z,66.83
2023-04-10T22:10:38.100Z,65.14
2023-04-10T22:13:53.701Z,64.69
2023-04-10T22:17:18.007Z,65.35
2023-04-10T22:20:29.094Z,65.97
2023-04-10T22:24:09.499Z,66.27
2023-04-10T22:27:37.275Z,67.66
2023-04-10T22:31:25.950Z,66.08
2023-04-10T22:35:27.309Z,64.97
2023-04-10T22:39:35.416Z,65.91
2023-04-10T22:43:09.174Z,66.79
2023-04-10T22:46:39.642Z,67.75
2023-04-10T22:49:47.968Z,66.27
2023-04-10T22:53:29.477Z,64.86
2023-04-10T22:57:03.224Z,64.88
2023-04-10T23:01:12.472Z,65.82
2023-04-10T23:05:13.265Z,66.96
2023-04-10T23:09:00.137Z,64.75
2023-04-10T23:12:54.625Z,64.53
2023-04-10T23:16:42.339Z,65.04
2023-04-10T23:20:50.683Z,65.99
2023-04-10T23:24:42.403Z,66.91
2023-04-10T23:28:50.476Z,65.02
2023-04-10T23:32:58.688Z,64.67
2023-04-10T23:37:06.984Z,65.07
2023-04-10T23:41:07.961Z,67.73
2023-04-10T23:45:05.161Z,68.35
2023-04-10T23:49:13.275Z,65.84
2023-04-10T23:53:12.724Z,65.57
2023-04-10T23:56:42.450Z,66.26
